Time;durP1;ratioP1;P1;durP2;ratioP2;P2;SDS_P1;SDS_P2;PMS_P1;PMS_P2;Temp;Humidity;BMP_temperature;BMP_pressure;BME280_temperature;BME280_humidity;BME280_pressure;Samples;Min_cycle;Max_cycle;Signal;HPM_P1;HPM_P2
2022/01/20 00:01:43;;;;;;;19.67;2.47;;;;;;;;;;5034937;28;20042;-68
2022/01/20 00:04:17;;;;;;;20.13;3.03;;;;;;;;;;5034183;28;20095;-68
2022/01/20 00:07:26;;;;;;;18.10;2.88;;;;;;;;;;5035617;28;20241;-69
2022/01/20 00:26:11;;;;;;;23.02;3.35;;;;;;;;;;5034127;28;20480;-68
2022/01/20 00:31:25;;;;;;;;;;;;;;;;;;5035182;28;20122;-68
2022/01/20 00:33:58;;;;;;;15.82;2.42;;;;;;;;;;5035154;28;20022;-68
2022/01/20 00:39:03;;;;;;;21.85;2.78;;;;;;;;;;5034712;28;20514;-68
2022/01/20 00:41:29;;;;;;;22.27;2.20;;;;;;;;;;5033377;28;20052;-68
2022/01/20 00:43:55;;;;;;;16.23;2.25;;;;;;;;;;5033895;28;20160;-68
2022/01/20 00:46:21;;;;;;;20.10;2.75;;;;;;;;;;5033393;28;20047;-68
2022/01/20 00:48:47;;;;;;;18.25;2.03;;;;;;;;;;5033555;28;20124;-69
2022/01/20 00:51:14;;;;;;;32.83;3.60;;;;;;;;;;5016864;28;20052;-68
2022/01/20 00:53:44;;;;;;;21.27;3.22;;;;;;;;;;5034432;28;20491;-68
2022/01/20 00:56:11;;;;;;;19.70;2.65;;;;;;;;;;5034205;28;20500;-68
2022/01/20 00:58:37;;;;;;;21.83;2.67;;;;;;;;;;5016811;28;20045;-68
2022/01/20 01:01:03;;;;;;;10.88;1.90;;;;;;;;;;5033019;28;20048;-68
2022/01/20 01:03:29;;;;;;;13.98;1.80;;;;;;;;;;5016449;28;20049;-68
2022/01/20 01:06:11;;;;;;;16.42;1.92;;;;;;;;;;5034368;28;20103;-68
2022/01/20 01:08:38;;;;;;;16.15;1.55;;;;;;;;;;5034096;28;20124;-68
2022/01/20 01:11:04;;;;;;;13.38;1.75;;;;;;;;;;5034310;28;20060;-68
2022/01/20 01:13:30;;;;;;;13.90;2.00;;;;;;;;;;5033379;28;20048;-68
2022/01/20 01:15:56;;;;;;;18.30;1.65;;;;;;;;;;5033969;28;20475;-68
2022/01/20 01:23:36;;;;;;;12.35;1.70;;;;;;;;;;5032669;28;20397;-67
2022/01/20 01:26:04;;;;;;;13.40;2.22;;;;;;;;;;5032830;28;20111;-67
2022/01/20 01:28:31;;;;;;;13.07;1.88;;;;;;;;;;5032708;28;20075;-67
2022/01/20 01:33:53;;;;;;;13.50;1.80;;;;;;;;;;5032407;28;20049;-67
2022/01/20 01:36:21;;;;;;;12.02;1.40;;;;;;;;;;5032341;28;20490;-67
2022/01/20 01:38:47;;;;;;;16.35;2.33;;;;;;;;;;5033588;28;20053;-67
2022/01/20 01:41:15;;;;;;;16.85;1.75;;;;;;;;;;5033640;28;20560;-67
2022/01/20 01:43:44;;;;;;;14.63;2.05;;;;;;;;;;5032340;28;20052;-67
2022/01/20 01:46:12;;;;;;;18.88;1.67;;;;;;;;;;5032480;28;20088;-67
2022/01/20 01:48:40;;;;;;;13.45;2.13;;;;;;;;;;5032217;28;20059;-67
2022/01/20 01:51:06;;;;;;;12.98;1.70;;;;;;;;;;5033619;28;20459;-68
2022/01/20 01:53:32;;;;;;;14.35;1.83;;;;;;;;;;5015504;28;20041;-67
2022/01/20 01:55:58;;;;;;;19.63;2.25;;;;;;;;;;5035730;28;20125;-68
2022/01/20 01:58:24;;;;;;;10.55;2.00;;;;;;;;;;5031831;28;20049;-68
2022/01/20 02:00:50;;;;;;;27.45;3.05;;;;;;;;;;5031844;28;20053;-68
2022/01/20 02:03:16;;;;;;;19.85;2.38;;;;;;;;;;5049838;28;20053;-68
2022/01/20 02:06:07;;;;;;;37.53;5.35;;;;;;;;;;5053055;28;20474;-68
2022/01/20 02:08:56;;;;;;;13.55;1.70;;;;;;;;;;5052844;28;20514;-68
2022/01/20 02:19:39;;;;;;;9.07;1.15;;;;;;;;;;5051844;28;20060;-68
2022/01/20 02:22:05;;;;;;;11.77;1.40;;;;;;;;;;5051681;28;20086;-68
2022/01/20 02:24:31;;;;;;;10.57;1.33;;;;;;;;;;5052745;28;20056;-68
2022/01/20 02:26:58;;;;;;;9.88;0.95;;;;;;;;;;5052917;28;20388;-68
2022/01/20 02:29:25;;;;;;;10.32;1.40;;;;;;;;;;5051462;28;20394;-68
2022/01/20 02:31:58;;;;;;;7.20;0.93;;;;;;;;;;5052520;28;20445;-68
2022/01/20 02:34:28;;;;;;;7.35;0.80;;;;;;;;;;5052728;28;20102;-68
2022/01/20 02:36:54;;;;;;;12.02;1.25;;;;;;;;;;5051703;28;20068;-68
2022/01/20 02:44:53;;;;;;;11.98;1.08;;;;;;;;;;5052023;28;20406;-68
2022/01/20 02:47:20;;;;;;;7.53;1.40;;;;;;;;;;5034906;28;20082;-68
2022/01/20 02:49:46;;;;;;;10.27;1.48;;;;;;;;;;5034622;28;20128;-68
2022/01/20 02:52:12;;;;;;;7.55;0.98;;;;;;;;;;5034622;28;20045;-68
2022/01/20 02:54:38;;;;;;;5.65;0.90;;;;;;;;;;5052659;28;20049;-69
2022/01/20 02:57:05;;;;;;;7.10;1.45;;;;;;;;;;5052403;28;20443;-68
2022/01/20 02:59:32;;;;;;;8.50;1.20;;;;;;;;;;5052540;28;20128;-68
2022/01/20 03:01:58;;;;;;;9.82;1.02;;;;;;;;;;5051427;28;20407;-68
2022/01/20 03:04:26;;;;;;;6.82;0.80;;;;;;;;;;5051101;28;20049;-68
2022/01/20 03:06:55;;;;;;;10.88;1.50;;;;;;;;;;5051539;28;20049;-69
2022/01/20 03:09:21;;;;;;;7.60;1.00;;;;;;;;;;5052216;28;20044;-69
2022/01/20 03:11:47;;;;;;;11.43;1.30;;;;;;;;;;5051512;28;20053;-69
2022/01/20 03:14:14;;;;;;;8.68;1.20;;;;;;;;;;5051254;28;20072;-68
2022/01/20 03:16:40;;;;;;;9.95;1.10;;;;;;;;;;5052572;28;20509;-68
2022/01/20 03:19:06;;;;;;;11.02;1.73;;;;;;;;;;5052294;28;20550;-68
2022/01/20 03:21:32;;;;;;;5.18;1.25;;;;;;;;;;5051143;28;20560;-68
2022/01/20 03:23:58;;;;;;;8.55;1.02;;;;;;;;;;5051180;28;20041;-68
2022/01/20 03:26:24;;;;;;;10.63;1.33;;;;;;;;;;5034582;28;20479;-68
2022/01/20 03:28:50;;;;;;;12.18;1.60;;;;;;;;;;5052450;28;20044;-68
2022/01/20 03:31:17;;;;;;;11.77;1.40;;;;;;;;;;5050962;28;20060;-68
2022/01/20 03:33:42;;;;;;;11.82;1.60;;;;;;;;;;5052279;28;20076;-68
2022/01/20 03:36:09;;;;;;;10.02;1.85;;;;;;;;;;5034697;28;20530;-68
2022/01/20 03:38:35;;;;;;;12.18;1.92;;;;;;;;;;5054245;28;20414;-68
2022/01/20 03:41:01;;;;;;;11.35;1.58;;;;;;;;;;5055694;28;20045;-68
2022/01/20 03:43:27;;;;;;;13.48;1.80;;;;;;;;;;5055962;28;20552;-68
2022/01/20 03:45:56;;;;;;;21.20;2.13;;;;;;;;;;5055462;28;20048;-68
2022/01/20 03:48:25;;;;;;;18.55;2.08;;;;;;;;;;5054602;28;20044;-68
2022/01/20 03:51:00;;;;;;;22.02;2.53;;;;;;;;;;5055744;28;20052;-68
2022/01/20 03:53:27;;;;;;;19.17;2.42;;;;;;;;;;5037840;28;20064;-68
2022/01/20 03:55:54;;;;;;;21.85;2.53;;;;;;;;;;5055904;28;20053;-68
2022/01/20 03:58:20;;;;;;;25.55;3.42;;;;;;;;;;5037806;28;20041;-68
2022/01/20 04:00:46;;;;;;;20.40;2.17;;;;;;;;;;5055512;28;20414;-68
2022/01/20 04:03:12;;;;;;;16.02;2.03;;;;;;;;;;5055429;28;20045;-68
2022/01/20 04:05:47;;;;;;;19.83;2.63;;;;;;;;;;5054339;28;20051;-68
2022/01/20 04:08:13;;;;;;;18.17;2.30;;;;;;;;;;5055621;28;20052;-68
2022/01/20 04:10:39;;;;;;;19.52;2.47;;;;;;;;;;5053904;28;20049;-68
2022/01/20 04:13:05;;;;;;;16.63;2.30;;;;;;;;;;5037218;28;20124;-67
2022/01/20 04:15:38;;;;;;;24.58;2.53;;;;;;;;;;5054038;28;20049;-68
2022/01/20 04:18:05;;;;;;;24.35;2.90;;;;;;;;;;5037258;28;20136;-68
2022/01/20 04:20:31;;;;;;;24.38;3.67;;;;;;;;;;5055154;28;20109;-68
2022/01/20 04:22:57;;;;;;;22.80;3.05;;;;;;;;;;5055231;28;20041;-68
2022/01/20 04:25:23;;;;;;;18.30;2.70;;;;;;;;;;5055109;28;20056;-68
2022/01/20 04:27:49;;;;;;;19.95;2.35;;;;;;;;;;5053745;28;20045;-67
2022/01/20 04:30:15;;;;;;;22.55;2.92;;;;;;;;;;5053762;28;20395;-67
2022/01/20 04:32:41;;;;;;;20.67;2.35;;;;;;;;;;5036954;28;20102;-67
2022/01/20 04:35:08;;;;;;;31.90;3.50;;;;;;;;;;5053254;28;20057;-67
2022/01/20 04:37:34;;;;;;;14.20;2.35;;;;;;;;;;5053721;28;20435;-67
2022/01/20 04:40:02;;;;;;;20.15;2.55;;;;;;;;;;5053326;28;20049;-68
2022/01/20 04:42:30;;;;;;;19.55;2.45;;;;;;;;;;5053617;28;20491;-67
2022/01/20 04:45:02;;;;;;;20.83;2.78;;;;;;;;;;5054635;28;20040;-67
2022/01/20 04:58:27;;;;;;;17.10;2.08;;;;;;;;;;5053205;28;20136;-68
2022/01/20 05:00:53;;;;;;;11.65;1.55;;;;;;;;;;5052977;28;20598;-68
2022/01/20 05:03:19;;;;;;;21.42;3.05;;;;;;;;;;5054338;28;20380;-68
2022/01/20 05:05:45;;;;;;;15.75;3.08;;;;;;;;;;5054131;28;20120;-68
2022/01/20 05:08:11;;;;;;;11.63;1.70;;;;;;;;;;5052639;28;20130;-68
2022/01/20 05:10:38;;;;;;;11.77;1.80;;;;;;;;;;5052668;28;20040;-67
2022/01/20 05:13:12;;;;;;;22.50;3.88;;;;;;;;;;5054032;28;20052;-67
2022/01/20 05:15:39;;;;;;;24.63;3.00;;;;;;;;;;5052840;28;20045;-67
2022/01/20 05:18:05;;;;;;;22.38;2.65;;;;;;;;;;5052744;28;20102;-67
2022/01/20 05:20:31;;;;;;;13.88;2.00;;;;;;;;;;5053997;28;20041;-67
2022/01/20 05:22:57;;;;;;;10.30;1.63;;;;;;;;;;5052828;28;20132;-67
2022/01/20 05:25:23;;;;;;;13.40;2.45;;;;;;;;;;5052483;28;20037;-68
2022/01/20 05:27:49;;;;;;;18.23;3.72;;;;;;;;;;5053919;28;20045;-67
2022/01/20 05:30:15;;;;;;;13.10;1.92;;;;;;;;;;5052116;28;20219;-68
2022/01/20 05:32:41;;;;;;;12.02;1.90;;;;;;;;;;5053560;28;20045;-68
2022/01/20 05:35:07;;;;;;;14.60;2.00;;;;;;;;;;5053355;28;20137;-68
2022/01/20 05:37:33;;;;;;;18.65;2.83;;;;;;;;;;5052162;28;20095;-68
2022/01/20 05:39:59;;;;;;;12.40;1.70;;;;;;;;;;5053355;28;20081;-67
2022/01/20 05:42:25;;;;;;;14.00;2.70;;;;;;;;;;5052202;28;20051;-68
2022/01/20 05:44:52;;;;;;;15.35;2.08;;;;;;;;;;5052500;28;20049;-68
2022/01/20 05:47:25;;;;;;;14.48;1.80;;;;;;;;;;5051993;28;20392;-67
2022/01/20 05:49:51;;;;;;;15.23;2.10;;;;;;;;;;5053546;28;20049;-67
2022/01/20 05:52:19;;;;;;;11.93;1.98;;;;;;;;;;5035415;28;20052;-67
2022/01/20 05:54:45;;;;;;;20.77;3.00;;;;;;;;;;5051971;28;20049;-67
2022/01/20 05:57:11;;;;;;;14.32;2.05;;;;;;;;;;5051925;28;20043;-68
2022/01/20 05:59:38;;;;;;;21.90;2.75;;;;;;;;;;5051764;28;20120;-68
2022/01/20 06:02:13;;;;;;;14.82;1.67;;;;;;;;;;5052132;28;20049;-67
2022/01/20 06:04:40;;;;;;;17.52;2.88;;;;;;;;;;5051913;28;20156;-67
2022/01/20 06:07:06;;;;;;;19.25;2.63;;;;;;;;;;5052203;28;20048;-67
2022/01/20 06:09:32;;;;;;;8.63;1.50;;;;;;;;;;5053142;28;20048;-68
2022/01/20 06:11:59;;;;;;;13.60;2.95;;;;;;;;;;5052743;28;20041;-67
2022/01/20 06:14:28;;;;;;;9.68;1.42;;;;;;;;;;5051822;28;20051;-67
2022/01/20 06:16:54;;;;;;;10.73;1.85;;;;;;;;;;5051656;28;20057;-68
2022/01/20 06:19:20;;;;;;;15.82;2.08;;;;;;;;;;5035360;28;20048;-68
2022/01/20 06:21:47;;;;;;;7.30;1.48;;;;;;;;;;5051713;28;20045;-68
2022/01/20 06:24:13;;;;;;;13.70;2.20;;;;;;;;;;5051878;28;20088;-68
2022/01/20 06:26:39;;;;;;;8.05;1.40;;;;;;;;;;5052898;28;20053;-68
2022/01/20 06:29:05;;;;;;;7.25;1.70;;;;;;;;;;5052925;28;20099;-68
2022/01/20 06:31:33;;;;;;;11.32;1.98;;;;;;;;;;5051440;28;20052;-68
2022/01/20 06:33:59;;;;;;;16.40;2.53;;;;;;;;;;5051488;28;20128;-68
2022/01/20 06:36:24;;;;;;;12.32;2.17;;;;;;;;;;5052486;28;20164;-68
2022/01/20 06:38:50;;;;;;;13.88;1.95;;;;;;;;;;5051557;28;20110;-68
2022/01/20 06:41:17;;;;;;;15.15;1.75;;;;;;;;;;5051498;28;20045;-68
2022/01/20 06:43:43;;;;;;;11.55;1.73;;;;;;;;;;5052751;28;20048;-67
2022/01/20 06:46:09;;;;;;;10.73;1.73;;;;;;;;;;5034692;28;20045;-67
2022/01/20 06:48:35;;;;;;;12.48;2.08;;;;;;;;;;5035269;28;20049;-67
2022/01/20 06:51:01;;;;;;;10.13;2.03;;;;;;;;;;5051576;28;20142;-67
2022/01/20 06:53:27;;;;;;;13.85;1.83;;;;;;;;;;5034849;28;20388;-67
2022/01/20 06:55:53;;;;;;;13.93;1.75;;;;;;;;;;5034789;28;20045;-68
2022/01/20 06:58:22;;;;;;;19.15;3.08;;;;;;;;;;5051386;28;20049;-67
2022/01/20 07:00:48;;;;;;;18.77;3.40;;;;;;;;;;5053041;28;20384;-67
2022/01/20 07:03:14;;;;;;;44.60;7.13;;;;;;;;;;5034704;28;20079;-67
2022/01/20 07:05:40;;;;;;;31.60;4.72;;;;;;;;;;5053078;28;20386;-67
2022/01/20 07:08:06;;;;;;;14.95;2.13;;;;;;;;;;5051559;28;20064;-67
2022/01/20 07:10:32;;;;;;;18.90;2.13;;;;;;;;;;5034751;28;20502;-67
2022/01/20 07:12:58;;;;;;;14.52;1.98;;;;;;;;;;5038087;28;20076;-67
2022/01/20 07:15:24;;;;;;;13.48;2.63;;;;;;;;;;5055159;28;20545;-67
2022/01/20 07:17:50;;;;;;;13.23;3.22;;;;;;;;;;5056386;28;20094;-67
2022/01/20 07:20:17;;;;;;;21.95;3.40;;;;;;;;;;5055155;28;20380;-67
2022/01/20 07:22:43;;;;;;;12.45;2.10;;;;;;;;;;5056120;28;20123;-67
2022/01/20 07:25:09;;;;;;;24.08;2.40;;;;;;;;;;5055242;28;20075;-68
2022/01/20 07:27:35;;;;;;;16.25;2.30;;;;;;;;;;5038453;28;20041;-68
2022/01/20 07:30:01;;;;;;;38.42;5.43;;;;;;;;;;5056288;28;20510;-68
2022/01/20 07:32:27;;;;;;;15.48;2.95;;;;;;;;;;5038203;28;20041;-68
2022/01/20 07:34:53;;;;;;;44.58;8.00;;;;;;;;;;5038095;28;20048;-68
2022/01/20 07:37:19;;;;;;;80.05;12.85;;;;;;;;;;5054790;28;20136;-67
2022/01/20 07:39:45;;;;;;;65.65;10.20;;;;;;;;;;5055702;28;20053;-67
2022/01/20 07:42:11;;;;;;;67.53;10.07;;;;;;;;;;5055576;28;20103;-67
2022/01/20 07:44:37;;;;;;;24.45;3.47;;;;;;;;;;5054463;28;20084;-67
2022/01/20 07:47:03;;;;;;;57.38;9.50;;;;;;;;;;5054448;28;20107;-67
2022/01/20 07:49:30;;;;;;;24.98;3.13;;;;;;;;;;5055909;28;20487;-67
2022/01/20 07:51:55;;;;;;;37.85;6.03;;;;;;;;;;5054631;28;20091;-67
2022/01/20 07:54:21;;;;;;;22.75;3.38;;;;;;;;;;5054243;28;20430;-67
2022/01/20 07:56:49;;;;;;;45.45;8.10;;;;;;;;;;5054552;28;20052;-68
2022/01/20 07:59:15;;;;;;;64.30;10.25;;;;;;;;;;5054530;28;20049;-67
2022/01/20 08:01:41;;;;;;;17.10;2.35;;;;;;;;;;5055650;28;20070;-67
2022/01/20 08:04:07;;;;;;;15.43;2.85;;;;;;;;;;5054501;28;20053;-67
2022/01/20 08:06:33;;;;;;;90.97;14.68;;;;;;;;;;5037629;28;20053;-67
2022/01/20 08:08:59;;;;;;;97.03;14.27;;;;;;;;;;5055380;28;20186;-67
2022/01/20 08:11:25;;;;;;;66.63;12.57;;;;;;;;;;5037344;28;20190;-67
2022/01/20 08:13:52;;;;;;;22.48;4.18;;;;;;;;;;5055251;28;20048;-67
2022/01/20 08:16:18;;;;;;;18.92;2.65;;;;;;;;;;5053922;28;20128;-67
2022/01/20 08:18:44;;;;;;;14.82;1.98;;;;;;;;;;5055271;28;20048;-67
2022/01/20 08:21:10;;;;;;;16.23;2.20;;;;;;;;;;5055256;28;20395;-67
2022/01/20 08:23:36;;;;;;;15.40;2.35;;;;;;;;;;5053440;28;20037;-67
2022/01/20 08:26:02;;;;;;;18.83;2.72;;;;;;;;;;5053533;28;20054;-68
2022/01/20 08:28:28;;;;;;;13.57;2.30;;;;;;;;;;5055447;28;20045;-68
2022/01/20 08:30:54;;;;;;;17.13;2.35;;;;;;;;;;5037123;28;20127;-68
2022/01/20 08:33:20;;;;;;;18.23;4.05;;;;;;;;;;5053821;28;20037;-68
2022/01/20 08:35:47;;;;;;;15.05;2.28;;;;;;;;;;5054793;28;20056;-68
2022/01/20 08:38:13;;;;;;;16.95;3.22;;;;;;;;;;5054701;28;20084;-68
2022/01/20 08:40:39;;;;;;;12.45;1.92;;;;;;;;;;5036964;28;20430;-68
2022/01/20 08:43:08;;;;;;;25.20;4.90;;;;;;;;;;5053575;28;20052;-68
2022/01/20 08:45:38;;;;;;;19.02;4.07;;;;;;;;;;5054780;28;20072;-68
2022/01/20 08:48:04;;;;;;;26.70;4.32;;;;;;;;;;5053374;28;20045;-69
2022/01/20 08:50:31;;;;;;;24.45;3.00;;;;;;;;;;5054413;28;20044;-69
2022/01/20 08:52:58;;;;;;;16.75;2.67;;;;;;;;;;5053258;28;20048;-69
2022/01/20 08:55:26;;;;;;;31.98;5.60;;;;;;;;;;5053289;28;20279;-69
2022/01/20 08:57:53;;;;;;;21.85;3.33;;;;;;;;;;5053064;28;20055;-68
2022/01/20 09:00:20;;;;;;;21.15;3.75;;;;;;;;;;5036685;28;20399;-69
2022/01/20 09:02:46;;;;;;;27.52;4.60;;;;;;;;;;5053382;28;20072;-68
2022/01/20 09:05:12;;;;;;;30.77;4.82;;;;;;;;;;5036338;28;20045;-68
2022/01/20 09:07:38;;;;;;;26.13;3.80;;;;;;;;;;5054178;28;20057;-69
2022/01/20 09:10:08;;;;;;;36.22;5.95;;;;;;;;;;5053170;28;20041;-68
2022/01/20 09:17:47;;;;;;;18.60;4.25;;;;;;;;;;5053014;28;20092;-68
2022/01/20 09:20:13;;;;;;;32.10;4.57;;;;;;;;;;5052861;28;20146;-69
2022/01/20 09:22:39;;;;;;;35.67;5.95;;;;;;;;;;5052739;28;20537;-68
2022/01/20 09:25:06;;;;;;;39.45;5.20;;;;;;;;;;5052878;28;20053;-69
2022/01/20 09:27:32;;;;;;;22.13;3.05;;;;;;;;;;5052594;28;20044;-69
2022/01/20 09:30:00;;;;;;;52.80;8.88;;;;;;;;;;5036007;28;20049;-69
2022/01/20 09:32:28;;;;;;;17.85;2.17;;;;;;;;;;5052536;28;20102;-68
2022/01/20 09:34:56;;;;;;;11.50;1.80;;;;;;;;;;5051757;28;20063;-69
2022/01/20 09:37:22;;;;;;;14.15;2.47;;;;;;;;;;5052242;28;20048;-68
2022/01/20 09:39:48;;;;;;;16.33;2.28;;;;;;;;;;5052301;28;20044;-68
2022/01/20 09:42:14;;;;;;;23.88;3.42;;;;;;;;;;5053627;28;20049;-68
2022/01/20 09:44:45;;;;;;;19.77;3.15;;;;;;;;;;5052314;28;20044;-68
2022/01/20 09:47:12;;;;;;;35.38;5.22;;;;;;;;;;5053452;28;20132;-68
2022/01/20 09:49:38;;;;;;;14.18;2.08;;;;;;;;;;5035546;28;20048;-66
2022/01/20 09:52:04;;;;;;;14.70;2.00;;;;;;;;;;5035568;28;20051;-66
2022/01/20 09:54:31;;;;;;;10.82;1.45;;;;;;;;;;5052536;28;20045;-66
2022/01/20 09:56:58;;;;;;;15.82;1.73;;;;;;;;;;5035894;28;20060;-67
2022/01/20 09:59:24;;;;;;;21.73;2.90;;;;;;;;;;5053479;28;20056;-67
2022/01/20 10:01:56;;;;;;;19.35;3.67;;;;;;;;;;5053188;28;20048;-67
2022/01/20 10:04:21;;;;;;;9.98;1.88;;;;;;;;;;5052167;28;20045;-68
2022/01/20 10:06:55;;;;;;;11.07;1.83;;;;;;;;;;5053348;28;20102;-68
2022/01/20 10:09:39;;;;;;;8.63;1.88;;;;;;;;;;5051843;28;20049;-67
2022/01/20 10:12:07;;;;;;;27.77;3.75;;;;;;;;;;5053011;28;20157;-67
2022/01/20 10:14:50;;;;;;;16.55;2.42;;;;;;;;;;5035354;28;20471;-67
2022/01/20 10:17:20;;;;;;;187.80;33.63;;;;;;;;;;5058295;28;20087;-67
2022/01/20 10:19:46;;;;;;;131.75;26.02;;;;;;;;;;5057417;28;20450;-68
2022/01/20 10:22:12;;;;;;;63.22;11.70;;;;;;;;;;5052256;28;20069;-67
2022/01/20 10:24:38;;;;;;;36.78;8.32;;;;;;;;;;5052968;28;20515;-67
2022/01/20 10:27:09;;;;;;;39.35;7.43;;;;;;;;;;5051552;28;20053;-67
2022/01/20 10:29:35;;;;;;;24.73;4.03;;;;;;;;;;5051731;28;20053;-67
2022/01/20 10:32:01;;;;;;;21.20;1.95;;;;;;;;;;5053100;28;20087;-67
2022/01/20 10:34:35;;;;;;;84.25;15.02;;;;;;;;;;5051649;28;20052;-66
2022/01/20 10:37:04;;;;;;;22.52;3.10;;;;;;;;;;5051493;28;20059;-67
2022/01/20 10:39:33;;;;;;;22.88;3.35;;;;;;;;;;5051649;28;20376;-67
2022/01/20 10:42:00;;;;;;;23.85;3.30;;;;;;;;;;5053044;28;20084;-67
2022/01/20 10:44:26;;;;;;;18.80;3.75;;;;;;;;;;5052716;28;20052;-67
2022/01/20 10:46:53;;;;;;;29.15;4.93;;;;;;;;;;5054985;28;20045;-67
2022/01/20 10:49:20;;;;;;;27.98;4.90;;;;;;;;;;5055650;28;20049;-67
2022/01/20 10:51:56;;;;;;;23.23;3.90;;;;;;;;;;5055274;28;20052;-68
2022/01/20 10:54:22;;;;;;;9.52;1.58;;;;;;;;;;5056631;28;20402;-67
2022/01/20 10:56:48;;;;;;;13.20;2.30;;;;;;;;;;5055448;28;20057;-68
2022/01/20 10:59:14;;;;;;;15.80;3.03;;;;;;;;;;5056671;28;20095;-68
2022/01/20 11:01:40;;;;;;;18.27;2.80;;;;;;;;;;5056880;28;20072;-67
2022/01/20 11:04:08;;;;;;;9.82;1.73;;;;;;;;;;5055267;28;20106;-67
2022/01/20 11:06:36;;;;;;;30.27;4.40;;;;;;;;;;5055663;28;20053;-67
2022/01/20 11:09:04;;;;;;;17.27;3.13;;;;;;;;;;5038967;28;20071;-67
2022/01/20 11:11:30;;;;;;;23.97;4.70;;;;;;;;;;5055437;28;20119;-67
2022/01/20 11:13:56;;;;;;;13.73;2.47;;;;;;;;;;5055146;28;20049;-68
2022/01/20 11:16:22;;;;;;;17.65;2.75;;;;;;;;;;5055113;28;20080;-67
2022/01/20 11:18:48;;;;;;;15.07;3.22;;;;;;;;;;5055085;28;20460;-68
2022/01/20 11:21:27;;;;;;;13.65;1.63;;;;;;;;;;5055126;28;20064;-68
2022/01/20 11:23:53;;;;;;;14.82;2.47;;;;;;;;;;5056238;28;20411;-68
2022/01/20 11:26:19;;;;;;;26.67;3.08;;;;;;;;;;5038123;28;20048;-68
2022/01/20 11:28:58;;;;;;;7.97;1.35;;;;;;;;;;5054795;28;20048;-68
2022/01/20 11:31:34;;;;;;;18.90;3.08;;;;;;;;;;5054614;28;20511;-67
2022/01/20 11:33:59;;;;;;;13.32;2.67;;;;;;;;;;5055865;28;20052;-67
2022/01/20 11:36:31;;;;;;;24.30;4.70;;;;;;;;;;5054625;28;20104;-68
2022/01/20 11:39:01;;;;;;;11.52;2.28;;;;;;;;;;5037809;28;20479;-68
2022/01/20 11:41:39;;;;;;;11.02;2.08;;;;;;;;;;5038102;28;20084;-67
2022/01/20 11:44:10;;;;;;;15.88;2.75;;;;;;;;;;5055022;28;20183;-67
2022/01/20 11:46:38;;;;;;;16.60;2.78;;;;;;;;;;5054480;28;20052;-68
2022/01/20 11:49:06;;;;;;;15.35;2.50;;;;;;;;;;5054423;28;20570;-68
2022/01/20 11:51:51;;;;;;;14.52;2.40;;;;;;;;;;5055911;28;20048;-68
2022/01/20 11:54:26;;;;;;;9.50;1.58;;;;;;;;;;5055571;28;20048;-67
2022/01/20 11:57:03;;;;;;;16.20;2.28;;;;;;;;;;5055302;28;20041;-68
2022/01/20 11:59:35;;;;;;;11.07;2.00;;;;;;;;;;5054457;28;20041;-68
2022/01/20 12:02:01;;;;;;;13.88;1.90;;;;;;;;;;5054211;28;20044;-68
2022/01/20 12:04:34;;;;;;;15.82;2.85;;;;;;;;;;5054171;28;20407;-68
2022/01/20 12:07:00;;;;;;;23.40;3.85;;;;;;;;;;5054076;28;20048;-68
2022/01/20 12:09:34;;;;;;;12.60;2.58;;;;;;;;;;5055456;28;20103;-68
2022/01/20 12:12:00;;;;;;;18.92;1.88;;;;;;;;;;5054066;28;20049;-68
2022/01/20 12:14:38;;;;;;;23.60;4.32;;;;;;;;;;5055184;28;20582;-68
2022/01/20 12:17:05;;;;;;;17.80;3.30;;;;;;;;;;5054268;28;20452;-68
2022/01/20 12:19:31;;;;;;;17.45;2.25;;;;;;;;;;5054979;28;20495;-69
2022/01/20 12:21:57;;;;;;;13.45;1.75;;;;;;;;;;5053864;28;20049;-68
2022/01/20 12:24:23;;;;;;;6.47;1.40;;;;;;;;;;5054070;28;20399;-69
2022/01/20 12:26:49;;;;;;;14.75;2.30;;;;;;;;;;5055071;28;20450;-68
2022/01/20 12:29:15;;;;;;;9.90;1.98;;;;;;;;;;5054845;28;20053;-68
2022/01/20 12:31:46;;;;;;;9.05;1.50;;;;;;;;;;5053632;28;20041;-68
2022/01/20 12:34:12;;;;;;;14.98;2.50;;;;;;;;;;5053457;28;20045;-68
2022/01/20 12:36:39;;;;;;;13.25;2.55;;;;;;;;;;5053320;28;20089;-68
2022/01/20 12:39:05;;;;;;;18.15;3.25;;;;;;;;;;5053371;28;20049;-68
2022/01/20 12:41:31;;;;;;;8.23;1.40;;;;;;;;;;5053863;28;20095;-68
2022/01/20 12:44:05;;;;;;;5.80;1.80;;;;;;;;;;5053896;28;20049;-68
2022/01/20 12:46:33;;;;;;;34.95;6.65;;;;;;;;;;5053372;28;20060;-68
2022/01/20 12:49:08;;;;;;;13.20;3.05;;;;;;;;;;5053636;28;20057;-68
2022/01/20 12:51:35;;;;;;;11.50;1.88;;;;;;;;;;5054555;28;20503;-68
2022/01/20 12:54:16;;;;;;;14.73;1.95;;;;;;;;;;5053090;28;20515;-68
2022/01/20 12:56:51;;;;;;;33.78;5.55;;;;;;;;;;5036924;28;20123;-68
2022/01/20 12:59:22;;;;;;;27.38;5.05;;;;;;;;;;5036505;28;20462;-68
2022/01/20 13:01:49;;;;;;;11.57;1.90;;;;;;;;;;5054462;28;20483;-68
2022/01/20 13:04:17;;;;;;;8.77;1.52;;;;;;;;;;5052952;28;20056;-68
2022/01/20 13:06:46;;;;;;;18.73;2.53;;;;;;;;;;5036645;28;20045;-68
2022/01/20 13:09:12;;;;;;;21.17;4.05;;;;;;;;;;5052406;28;20434;-68
2022/01/20 13:11:43;;;;;;;9.93;2.00;;;;;;;;;;5054007;28;20053;-68
2022/01/20 13:14:09;;;;;;;14.63;2.58;;;;;;;;;;5052863;28;20518;-68
2022/01/20 13:16:35;;;;;;;13.70;1.90;;;;;;;;;;5052864;28;20041;-68
2022/01/20 13:19:03;;;;;;;11.68;1.90;;;;;;;;;;5053047;28;20048;-68
2022/01/20 13:21:36;;;;;;;11.00;1.52;;;;;;;;;;5054053;28;20051;-67
2022/01/20 13:24:03;;;;;;;9.23;1.70;;;;;;;;;;5053856;28;20076;-67
2022/01/20 13:26:29;;;;;;;10.90;2.15;;;;;;;;;;5054325;28;20129;-67
2022/01/20 13:29:02;;;;;;;15.82;2.47;;;;;;;;;;5054056;28;20099;-67
2022/01/20 13:31:34;;;;;;;19.65;2.30;;;;;;;;;;5129751;27;1186828;-67
2022/01/20 13:34:07;;;;;;;21.25;3.40;;;;;;;;;;5152590;27;20055;-68
2022/01/20 13:36:40;;;;;;;15.30;2.50;;;;;;;;;;5114408;28;20061;-67
2022/01/20 13:39:06;;;;;;;15.95;2.58;;;;;;;;;;5113204;28;20054;-68
2022/01/20 13:41:32;;;;;;;12.52;2.40;;;;;;;;;;5131321;28;20047;-67
2022/01/20 13:46:46;;;;;;;20.02;2.80;;;;;;;;;;5109664;28;20047;-67
2022/01/20 13:49:15;;;;;;;32.35;6.70;;;;;;;;;;5110476;28;20046;-67
2022/01/20 13:51:40;;;;;;;;;;;;;;;;;;5093102;28;20143;-67
2022/01/20 13:54:07;;;;;;;15.27;2.38;;;;;;;;;;5092637;28;19967;-66
2022/01/20 13:56:33;;;;;;;27.27;5.35;;;;;;;;;;5092279;28;20424;-66
2022/01/20 13:59:11;;;;;;;19.52;2.88;;;;;;;;;;5092332;28;20047;-66
2022/01/20 14:01:37;;;;;;;18.67;3.70;;;;;;;;;;5110785;28;20189;-66
2022/01/20 14:04:04;;;;;;;30.08;4.40;;;;;;;;;;5092333;28;20058;-65
2022/01/20 14:06:30;;;;;;;27.23;5.10;;;;;;;;;;5110418;28;20081;-66
2022/01/20 14:08:56;;;;;;;12.38;2.40;;;;;;;;;;5110370;28;20059;-67
2022/01/20 14:11:23;;;;;;;29.50;4.53;;;;;;;;;;5110086;28;20093;-66
2022/01/20 14:13:49;;;;;;;34.40;5.45;;;;;;;;;;5110200;28;20043;-66
2022/01/20 14:16:16;;;;;;;27.20;3.75;;;;;;;;;;5110271;28;20044;-66
2022/01/20 14:18:44;;;;;;;10.00;1.52;;;;;;;;;;5110424;28;20048;-67
2022/01/20 14:21:10;;;;;;;9.90;1.60;;;;;;;;;;5091908;28;20517;-67
2022/01/20 14:23:36;;;;;;;7.18;1.20;;;;;;;;;;5110103;28;20363;-67
2022/01/20 14:26:05;;;;;;;10.68;1.60;;;;;;;;;;5091769;28;20054;-67
2022/01/20 14:28:31;;;;;;;10.15;1.60;;;;;;;;;;5109615;28;20052;-67
2022/01/20 14:30:57;;;;;;;9.65;1.00;;;;;;;;;;5109460;28;20056;-67
2022/01/20 14:33:24;;;;;;;6.75;1.17;;;;;;;;;;5110224;28;20039;-67
2022/01/20 14:35:50;;;;;;;12.27;2.00;;;;;;;;;;5109609;28;20470;-67
2022/01/20 14:38:16;;;;;;;8.45;1.83;;;;;;;;;;5108986;28;20134;-66
2022/01/20 14:40:42;;;;;;;11.80;2.05;;;;;;;;;;5109076;28;20109;-67
2022/01/20 14:43:08;;;;;;;8.30;1.00;;;;;;;;;;5095090;28;20494;-66
2022/01/20 14:45:34;;;;;;;9.50;1.42;;;;;;;;;;5077529;28;20048;-67
2022/01/20 14:48:00;;;;;;;16.23;2.28;;;;;;;;;;5077763;28;20048;-66
2022/01/20 14:50:27;;;;;;;15.27;2.00;;;;;;;;;;5077309;28;20054;-66
2022/01/20 14:52:54;;;;;;;31.77;6.07;;;;;;;;;;5077985;28;20058;-67
2022/01/20 14:55:20;;;;;;;17.33;2.63;;;;;;;;;;5095509;28;20051;-67
2022/01/20 14:57:46;;;;;;;17.95;1.70;;;;;;;;;;5095471;28;20490;-65
2022/01/20 15:00:15;;;;;;;10.40;1.90;;;;;;;;;;5077704;28;20043;-66
2022/01/20 15:02:45;;;;;;;10.57;1.83;;;;;;;;;;5095823;28;20113;-67
2022/01/20 15:05:11;;;;;;;13.95;2.42;;;;;;;;;;5095626;28;20084;-67
2022/01/20 15:07:37;;;;;;;10.70;2.13;;;;;;;;;;5095990;28;20056;-66
2022/01/20 15:10:04;;;;;;;13.85;2.72;;;;;;;;;;5077404;28;20044;-66
2022/01/20 15:12:30;;;;;;;13.15;2.20;;;;;;;;;;5095795;28;20080;-67
2022/01/20 15:14:56;;;;;;;18.45;3.53;;;;;;;;;;5095682;28;20044;-66
2022/01/20 15:17:22;;;;;;;8.55;1.70;;;;;;;;;;5077256;28;20102;-66
2022/01/20 15:19:48;;;;;;;19.15;2.08;;;;;;;;;;5095099;28;20039;-67
2022/01/20 15:22:14;;;;;;;12.90;1.80;;;;;;;;;;5077155;28;20536;-66
2022/01/20 15:24:40;;;;;;;9.65;2.08;;;;;;;;;;5095894;28;20048;-67
2022/01/20 15:27:07;;;;;;;10.68;1.42;;;;;;;;;;5095173;28;20486;-67
2022/01/20 15:29:32;;;;;;;10.50;1.77;;;;;;;;;;5095608;28;20432;-67
2022/01/20 15:31:58;;;;;;;11.88;1.80;;;;;;;;;;5077130;28;20052;-66
2022/01/20 15:34:24;;;;;;;9.57;1.70;;;;;;;;;;5077089;28;20059;-66
2022/01/20 15:36:52;;;;;;;7.60;1.55;;;;;;;;;;5067240;28;20044;-67